sensor_id;sensor_type;location;lat;lon;timestamp;pressure;altitude;pressure_sealevel;temperature;humidity
8569;BME280;4322;51.104;-4.162;2022-10-13T00:00:38;101924.75;;;13.79;100.00
8569;BME280;4322;51.104;-4.162;2022-10-13T00:03:07;101931.84;;;13.77;100.00
8569;BME280;4322;51.104;-4.162;2022-10-13T00:05:39;101923.25;;;13.73;100.00
8569;BME280;4322;51.104;-4.162;2022-10-13T00:08:08;101925.09;;;13.71;100.00
8569;BME280;4322;51.104;-4.162;2022-10-13T00:10:39;101931.34;;;13.69;100.00
8569;BME280;4322;51.104;-4.162;2022-10-13T00:13:07;101934.84;;;13.68;100.00
8569;BME280;4322;51.104;-4.162;2022-10-13T00:15:37;101925.28;;;13.67;100.00
8569;BME280;4322;51.104;-4.162;2022-10-13T00:18:06;101933.16;;;13.67;100.00
8569;BME280;4322;51.104;-4.162;2022-10-13T00:20:34;101927.09;;;13.66;100.00
8569;BME280;4322;51.104;-4.162;2022-10-13T00:23:03;101931.47;;;13.66;100.00
8569;BME280;4322;51.104;-4.162;2022-10-13T00:25:31;101925.25;;;13.68;100.00
8569;BME280;4322;51.104;-4.162;2022-10-13T00:28:00;101921.72;;;13.69;100.00
8569;BME280;4322;51.104;-4.162;2022-10-13T00:30:28;101913.84;;;13.69;100.00
8569;BME280;4322;51.104;-4.162;2022-10-13T00:32:56;101902.50;;;13.69;100.00
8569;BME280;4322;51.104;-4.162;2022-10-13T00:35:24;101899.03;;;13.68;100.00
8569;BME280;4322;51.104;-4.162;2022-10-13T00:37:52;101887.56;;;13.71;100.00
8569;BME280;4322;51.104;-4.162;2022-10-13T00:40:19;101878.81;;;13.72;100.00
8569;BME280;4322;51.104;-4.162;2022-10-13T00:42:47;101863.09;;;13.72;100.00
8569;BME280;4322;51.104;-4.162;2022-10-13T00:45:24;101856.13;;;13.71;100.00
8569;BME280;4322;51.104;-4.162;2022-10-13T00:47:55;101855.22;;;13.72;100.00
8569;BME280;4322;51.104;-4.162;2022-10-13T00:50:27;101841.28;;;13.71;100.00
8569;BME280;4322;51.104;-4.162;2022-10-13T00:52:57;101840.41;;;13.71;100.00
8569;BME280;4322;51.104;-4.162;2022-10-13T00:55:31;101836.88;;;13.72;100.00
8569;BME280;4322;51.104;-4.162;2022-10-13T00:58:02;101829.84;;;13.72;100.00
8569;BME280;4322;51.104;-4.162;2022-10-13T01:00:33;101817.59;;;13.73;100.00
8569;BME280;4322;51.104;-4.162;2022-10-13T01:03:02;101808.91;;;13.72;100.00
8569;BME280;4322;51.104;-4.162;2022-10-13T01:05:30;101800.22;;;13.72;100.00
8569;BME280;4322;51.104;-4.162;2022-10-13T01:07:58;101787.13;;;13.72;100.00
8569;BME280;4322;51.104;-4.162;2022-10-13T01:10:35;101784.50;;;13.72;100.00
8569;BME280;4322;51.104;-4.162;2022-10-13T01:13:12;101775.78;;;13.71;100.00
8569;BME280;4322;51.104;-4.162;2022-10-13T01:15:50;101773.16;;;13.71;100.00
8569;BME280;4322;51.104;-4.162;2022-10-13T01:18:25;101763.53;;;13.72;100.00
8569;BME280;4322;51.104;-4.162;2022-10-13T01:21:05;101770.44;;;13.73;100.00
8569;BME280;4322;51.104;-4.162;2022-10-13T01:27:00;101763.44;;;13.73;100.00
8569;BME280;4322;51.104;-4.162;2022-10-13T01:30:01;101765.22;;;13.73;100.00
8569;BME280;4322;51.104;-4.162;2022-10-13T01:32:35;101773.06;;;13.73;100.00
8569;BME280;4322;51.104;-4.162;2022-10-13T01:35:09;101773.16;;;13.71;100.00
8569;BME280;4322;51.104;-4.162;2022-10-13T01:37:46;101771.41;;;13.72;100.00
8569;BME280;4322;51.104;-4.162;2022-10-13T01:40:20;101768.78;;;13.72;100.00
8569;BME280;4322;51.104;-4.162;2022-10-13T01:42:55;101776.63;;;13.72;100.00
8569;BME280;4322;51.104;-4.162;2022-10-13T01:45:28;101778.44;;;13.70;100.00
8569;BME280;4322;51.104;-4.162;2022-10-13T01:47:58;101773.22;;;13.70;100.00
8569;BME280;4322;51.104;-4.162;2022-10-13T01:50:28;101774.16;;;13.69;100.00
8569;BME280;4322;51.104;-4.162;2022-10-13T01:52:59;101794.16;;;13.70;100.00
8569;BME280;4322;51.104;-4.162;2022-10-13T01:55:28;101792.53;;;13.67;100.00
8569;BME280;4322;51.104;-4.162;2022-10-13T01:57:57;101808.25;;;13.67;100.00
8569;BME280;4322;51.104;-4.162;2022-10-13T02:00:30;101804.72;;;13.68;100.00
8569;BME280;4322;51.104;-4.162;2022-10-13T02:03:10;101801.25;;;13.68;100.00
8569;BME280;4322;51.104;-4.162;2022-10-13T02:05:45;101810.97;;;13.66;100.00
8569;BME280;4322;51.104;-4.162;2022-10-13T02:08:21;101812.63;;;13.67;100.00
8569;BME280;4322;51.104;-4.162;2022-10-13T02:10:57;101816.19;;;13.66;100.00
8569;BME280;4322;51.104;-4.162;2022-10-13T02:13:27;101817.88;;;13.67;100.00
8569;BME280;4322;51.104;-4.162;2022-10-13T02:15:59;101822.28;;;13.66;100.00
8569;BME280;4322;51.104;-4.162;2022-10-13T02:18:30;101833.59;;;13.67;100.00
8569;BME280;4322;51.104;-4.162;2022-10-13T02:21:00;101831.06;;;13.65;100.00
8569;BME280;4322;51.104;-4.162;2022-10-13T02:23:29;101833.69;;;13.65;100.00
8569;BME280;4322;51.104;-4.162;2022-10-13T02:25:58;101836.44;;;13.62;100.00
8569;BME280;4322;51.104;-4.162;2022-10-13T02:28:27;101838.34;;;13.59;100.00
8569;BME280;4322;51.104;-4.162;2022-10-13T02:30:55;101842.06;;;13.53;100.00
8569;BME280;4322;51.104;-4.162;2022-10-13T02:33:25;101848.38;;;13.49;100.00
8569;BME280;4322;51.104;-4.162;2022-10-13T02:35:53;101848.63;;;13.43;100.00
8569;BME280;4322;51.104;-4.162;2022-10-13T02:38:21;101851.50;;;13.37;100.00
8569;BME280;4322;51.104;-4.162;2022-10-13T02:40:49;101856.97;;;13.33;100.00
8569;BME280;4322;51.104;-4.162;2022-10-13T02:43:17;101868.63;;;13.26;100.00
8569;BME280;4322;51.104;-4.162;2022-10-13T02:45:45;101871.38;;;13.23;100.00
8569;BME280;4322;51.104;-4.162;2022-10-13T02:48:12;101886.44;;;13.18;100.00
8569;BME280;4322;51.104;-4.162;2022-10-13T02:50:42;101901.53;;;13.11;100.00
8569;BME280;4322;51.104;-4.162;2022-10-13T02:53:10;101896.44;;;13.06;100.00
8569;BME280;4322;51.104;-4.162;2022-10-13T02:55:38;101907.09;;;13.02;100.00
8569;BME280;4322;51.104;-4.162;2022-10-13T02:58:05;101913.38;;;12.98;100.00
8569;BME280;4322;51.104;-4.162;2022-10-13T03:00:33;101924.88;;;12.94;100.00
8569;BME280;4322;51.104;-4.162;2022-10-13T03:03:01;101930.25;;;12.91;100.00
8569;BME280;4322;51.104;-4.162;2022-10-13T03:05:29;101931.19;;;12.88;100.00
8569;BME280;4322;51.104;-4.162;2022-10-13T03:07:58;101923.50;;;12.85;100.00
8569;BME280;4322;51.104;-4.162;2022-10-13T03:10:26;101923.63;;;12.82;100.00
8569;BME280;4322;51.104;-4.162;2022-10-13T03:12:55;101915.88;;;12.79;100.00
8569;BME280;4322;51.104;-4.162;2022-10-13T03:15:23;101918.56;;;12.78;100.00
8569;BME280;4322;51.104;-4.162;2022-10-13T03:17:51;101909.88;;;12.77;100.00
8569;BME280;4322;51.104;-4.162;2022-10-13T03:20:19;101902.03;;;12.77;100.00
8569;BME280;4322;51.104;-4.162;2022-10-13T03:22:47;101886.34;;;12.77;100.00
8569;BME280;4322;51.104;-4.162;2022-10-13T03:25:17;101876.81;;;12.75;100.00
8569;BME280;4322;51.104;-4.162;2022-10-13T03:27:45;101855.06;;;12.74;100.00
8569;BME280;4322;51.104;-4.162;2022-10-13T03:30:13;101839.50;;;12.71;100.00
8569;BME280;4322;51.104;-4.162;2022-10-13T03:32:40;101835.16;;;12.70;100.00
8569;BME280;4322;51.104;-4.162;2022-10-13T03:35:09;101820.44;;;12.68;100.00
8569;BME280;4322;51.104;-4.162;2022-10-13T03:37:37;101810.19;;;12.63;100.00
8569;BME280;4322;51.104;-4.162;2022-10-13T03:40:06;101794.66;;;12.59;100.00
8569;BME280;4322;51.104;-4.162;2022-10-13T03:42:36;101785.25;;;12.54;100.00
8569;BME280;4322;51.104;-4.162;2022-10-13T03:45:05;101773.22;;;12.50;100.00
8569;BME280;4322;51.104;-4.162;2022-10-13T03:47:34;101775.13;;;12.47;100.00
8569;BME280;4322;51.104;-4.162;2022-10-13T03:50:03;101772.75;;;12.41;100.00
8569;BME280;4322;51.104;-4.162;2022-10-13T03:52:31;101780.63;;;12.39;100.00
8569;BME280;4322;51.104;-4.162;2022-10-13T03:54:59;101805.94;;;12.39;100.00
8569;BME280;4322;51.104;-4.162;2022-10-13T03:57:27;101820.66;;;12.41;100.00
8569;BME280;4322;51.104;-4.162;2022-10-13T03:59:56;101827.44;;;12.45;100.00
8569;BME280;4322;51.104;-4.162;2022-10-13T04:02:24;101831.59;;;12.51;100.00
8569;BME280;4322;51.104;-4.162;2022-10-13T04:04:52;101818.41;;;12.54;100.00
8569;BME280;4322;51.104;-4.162;2022-10-13T04:07:20;101807.75;;;12.59;100.00
8569;BME280;4322;51.104;-4.162;2022-10-13T04:09:48;101784.03;;;12.63;100.00
8569;BME280;4322;51.104;-4.162;2022-10-13T04:12:16;101773.38;;;12.68;100.00
8569;BME280;4322;51.104;-4.162;2022-10-13T04:14:46;101754.84;;;12.72;100.00
8569;BME280;4322;51.104;-4.162;2022-10-13T04:17:16;101745.91;;;12.78;100.00
8569;BME280;4322;51.104;-4.162;2022-10-13T04:19:44;101732.66;;;12.82;100.00
8569;BME280;4322;51.104;-4.162;2022-10-13T04:22:12;101713.47;;;12.82;100.00
8569;BME280;4322;51.104;-4.162;2022-10-13T04:24:40;101692.44;;;12.85;100.00
8569;BME280;4322;51.104;-4.162;2022-10-13T04:27:08;101678.34;;;12.87;100.00
8569;BME280;4322;51.104;-4.162;2022-10-13T04:29:36;101656.44;;;12.90;100.00
8569;BME280;4322;51.104;-4.162;2022-10-13T04:32:03;101629.28;;;12.92;100.00
8569;BME280;4322;51.104;-4.162;2022-10-13T04:34:33;101611.75;;;12.94;100.00
8569;BME280;4322;51.104;-4.162;2022-10-13T04:37:01;101596.81;;;12.96;100.00
8569;BME280;4322;51.104;-4.162;2022-10-13T04:39:29;101581.94;;;12.98;100.00
8569;BME280;4322;51.104;-4.162;2022-10-13T04:41:57;101577.47;;;13.00;100.00
8569;BME280;4322;51.104;-4.162;2022-10-13T04:44:25;101573.00;;;13.02;100.00
8569;BME280;4322;51.104;-4.162;2022-10-13T04:46:53;101571.16;;;13.04;100.00
8569;BME280;4322;51.104;-4.162;2022-10-13T04:49:21;101556.31;;;13.05;100.00
8569;BME280;4322;51.104;-4.162;2022-10-13T04:51:50;101551.00;;;13.06;100.00
8569;BME280;4322;51.104;-4.162;2022-10-13T04:54:18;101535.38;;;13.05;100.00
8569;BME280;4322;51.104;-4.162;2022-10-13T04:56:46;101538.84;;;13.05;100.00
8569;BME280;4322;51.104;-4.162;2022-10-13T04:59:13;101539.75;;;13.04;100.00
8569;BME280;4322;51.104;-4.162;2022-10-13T05:01:41;101544.16;;;13.04;100.00
8569;BME280;4322;51.104;-4.162;2022-10-13T05:04:10;101548.53;;;13.03;100.00
8569;BME280;4322;51.104;-4.162;2022-10-13T05:06:40;101543.31;;;13.03;100.00
8569;BME280;4322;51.104;-4.162;2022-10-13T05:09:30;101561.63;;;13.03;100.00
8569;BME280;4322;51.104;-4.162;2022-10-13T05:11:58;101564.25;;;13.03;100.00
8569;BME280;4322;51.104;-4.162;2022-10-13T05:14:26;101572.00;;;13.05;100.00
8569;BME280;4322;51.104;-4.162;2022-10-13T05:16:54;101563.31;;;13.04;100.00
8569;BME280;4322;51.104;-4.162;2022-10-13T05:19:22;101559.00;;;13.03;100.00
8569;BME280;4322;51.104;-4.162;2022-10-13T05:21:50;101555.63;;;13.01;100.00
8569;BME280;4322;51.104;-4.162;2022-10-13T05:24:18;101562.63;;;13.01;100.00
8569;BME280;4322;51.104;-4.162;2022-10-13T05:26:57;101591.44;;;12.99;100.00
8569;BME280;4322;51.104;-4.162;2022-10-13T05:29:25;101601.09;;;12.99;100.00
8569;BME280;4322;51.104;-4.162;2022-10-13T05:31:53;101598.47;;;12.99;100.00
8569;BME280;4322;51.104;-4.162;2022-10-13T05:34:21;101587.16;;;12.98;100.00
8569;BME280;4322;51.104;-4.162;2022-10-13T05:36:49;101595.91;;;12.97;100.00
8569;BME280;4322;51.104;-4.162;2022-10-13T05:39:17;101599.38;;;12.98;100.00
8569;BME280;4322;51.104;-4.162;2022-10-13T05:41:45;101610.75;;;12.97;100.00
8569;BME280;4322;51.104;-4.162;2022-10-13T05:44:15;101607.28;;;12.96;100.00
8569;BME280;4322;51.104;-4.162;2022-10-13T05:46:43;101606.47;;;12.96;100.00
8569;BME280;4322;51.104;-4.162;2022-10-13T05:49:11;101614.31;;;12.96;100.00
8569;BME280;4322;51.104;-4.162;2022-10-13T05:51:41;101616.06;;;12.95;100.00
8569;BME280;4322;51.104;-4.162;2022-10-13T05:54:13;101620.38;;;12.96;100.00
8569;BME280;4322;51.104;-4.162;2022-10-13T05:56:45;101621.31;;;12.95;100.00
8569;BME280;4322;51.104;-4.162;2022-10-13T05:59:17;101622.97;;;12.96;100.00
8569;BME280;4322;51.104;-4.162;2022-10-13T06:01:52;101622.22;;;12.94;100.00
8569;BME280;4322;51.104;-4.162;2022-10-13T06:04:23;101625.69;;;12.95;100.00
8569;BME280;4322;51.104;-4.162;2022-10-13T06:06:52;101621.34;;;12.94;100.00
8569;BME280;4322;51.104;-4.162;2022-10-13T06:09:20;101626.59;;;12.94;100.00
8569;BME280;4322;51.104;-4.162;2022-10-13T06:11:48;101624.91;;;12.93;100.00
8569;BME280;4322;51.104;-4.162;2022-10-13T06:14:17;101623.16;;;12.93;100.00
8569;BME280;4322;51.104;-4.162;2022-10-13T06:16:45;101629.28;;;12.92;100.00
8569;BME280;4322;51.104;-4.162;2022-10-13T06:19:13;101632.69;;;12.94;100.00
8569;BME280;4322;51.104;-4.162;2022-10-13T06:21:41;101641.47;;;12.93;100.00
8569;BME280;4322;51.104;-4.162;2022-10-13T06:24:09;101644.91;;;12.94;100.00
8569;BME280;4322;51.104;-4.162;2022-10-13T06:26:37;101645.00;;;12.92;100.00
8569;BME280;4322;51.104;-4.162;2022-10-13T06:29:05;101663.16;;;12.95;100.00
8569;BME280;4322;51.104;-4.162;2022-10-13T06:31:35;101667.47;;;12.96;100.00
8569;BME280;4322;51.104;-4.162;2022-10-13T06:34:03;101676.97;;;12.99;100.00
8569;BME280;4322;51.104;-4.162;2022-10-13T06:36:30;101683.84;;;13.01;100.00
8569;BME280;4322;51.104;-4.162;2022-10-13T06:38:58;101680.22;;;13.04;100.00
8569;BME280;4322;51.104;-4.162;2022-10-13T06:41:26;101683.63;;;13.06;100.00
8569;BME280;4322;51.104;-4.162;2022-10-13T06:43:54;101678.34;;;13.07;100.00
8569;BME280;4322;51.104;-4.162;2022-10-13T06:46:25;101676.56;;;13.08;100.00
8569;BME280;4322;51.104;-4.162;2022-10-13T06:48:54;101687.00;;;13.09;100.00
8569;BME280;4322;51.104;-4.162;2022-10-13T06:51:22;101686.06;;;13.10;100.00
8569;BME280;4322;51.104;-4.162;2022-10-13T06:53:50;101695.63;;;13.11;100.00
8569;BME280;4322;51.104;-4.162;2022-10-13T06:56:18;101706.00;;;13.13;100.00
8569;BME280;4322;51.104;-4.162;2022-10-13T06:58:46;101706.84;;;13.13;100.00
8569;BME280;4322;51.104;-4.162;2022-10-13T07:01:14;101717.28;;;13.15;100.00
8569;BME280;4322;51.104;-4.162;2022-10-13T07:03:42;101720.88;;;13.13;100.00
8569;BME280;4322;51.104;-4.162;2022-10-13T07:06:11;101742.59;;;13.15;100.00
8569;BME280;4322;51.104;-4.162;2022-10-13T07:08:39;101746.88;;;13.16;100.00
8569;BME280;4322;51.104;-4.162;2022-10-13T07:11:08;101747.69;;;13.18;100.00
8569;BME280;4322;51.104;-4.162;2022-10-13T07:13:42;101763.28;;;13.21;100.00
8569;BME280;4322;51.104;-4.162;2022-10-13T07:16:13;101748.47;;;13.20;100.00
8569;BME280;4322;51.104;-4.162;2022-10-13T07:18:41;101743.22;;;13.20;100.00
8569;BME280;4322;51.104;-4.162;2022-10-13T07:21:10;101755.41;;;13.21;100.00
8569;BME280;4322;51.104;-4.162;2022-10-13T07:23:38;101751.88;;;13.22;100.00
8569;BME280;4322;51.104;-4.162;2022-10-13T07:26:07;101755.25;;;13.24;100.00
8569;BME280;4322;51.104;-4.162;2022-10-13T07:28:36;101760.50;;;13.24;100.00
8569;BME280;4322;51.104;-4.162;2022-10-13T07:31:06;101755.25;;;13.24;100.00
8569;BME280;4322;51.104;-4.162;2022-10-13T07:33:36;101753.44;;;13.26;100.00
8569;BME280;4322;51.104;-4.162;2022-10-13T07:36:05;101761.22;;;13.27;100.00
8569;BME280;4322;51.104;-4.162;2022-10-13T07:38:35;101780.41;;;13.28;100.00
8569;BME280;4322;51.104;-4.162;2022-10-13T07:41:05;101772.41;;;13.31;100.00
8569;BME280;4322;51.104;-4.162;2022-10-13T07:43:33;101759.25;;;13.32;100.00
8569;BME280;4322;51.104;-4.162;2022-10-13T07:46:02;101763.47;;;13.35;100.00
8569;BME280;4322;51.104;-4.162;2022-10-13T07:48:31;101765.97;;;13.38;100.00
8569;BME280;4322;51.104;-4.162;2022-10-13T07:51:02;101767.59;;;13.40;100.00
8569;BME280;4322;51.104;-4.162;2022-10-13T07:53:31;101769.31;;;13.41;100.00
8569;BME280;4322;51.104;-4.162;2022-10-13T07:56:03;101793.59;;;13.45;100.00
8569;BME280;4322;51.104;-4.162;2022-10-13T07:58:31;101813.47;;;13.49;100.00
8569;BME280;4322;51.104;-4.162;2022-10-13T08:01:00;101827.34;;;13.51;100.00
8569;BME280;4322;51.104;-4.162;2022-10-13T08:03:29;101830.78;;;13.53;100.00
8569;BME280;4322;51.104;-4.162;2022-10-13T08:05:57;101856.75;;;13.57;100.00
8569;BME280;4322;51.104;-4.162;2022-10-13T08:08:27;101859.28;;;13.59;100.00
8569;BME280;4322;51.104;-4.162;2022-10-13T08:11:00;101880.19;;;13.60;100.00
8569;BME280;4322;51.104;-4.162;2022-10-13T08:13:29;101891.41;;;13.64;100.00
8569;BME280;4322;51.104;-4.162;2022-10-13T08:15:59;101905.28;;;13.66;100.00
8569;BME280;4322;51.104;-4.162;2022-10-13T08:18:28;101931.25;;;13.70;100.00
8569;BME280;4322;51.104;-4.162;2022-10-13T08:20:59;101963.47;;;13.72;100.00
8569;BME280;4322;51.104;-4.162;2022-10-13T08:23:48;102003.56;;;13.75;100.00
8569;BME280;4322;51.104;-4.162;2022-10-13T08:26:19;102013.94;;;13.78;100.00
8569;BME280;4322;51.104;-4.162;2022-10-13T08:28:50;102044.25;;;13.83;100.00
8569;BME280;4322;51.104;-4.162;2022-10-13T08:31:38;102074.72;;;13.86;100.00
8569;BME280;4322;51.104;-4.162;2022-10-13T08:34:07;102096.53;;;13.86;100.00
8569;BME280;4322;51.104;-4.162;2022-10-13T08:36:35;102127.84;;;13.89;100.00
8569;BME280;4322;51.104;-4.162;2022-10-13T08:39:04;102165.28;;;13.93;100.00
8569;BME280;4322;51.104;-4.162;2022-10-13T08:41:35;102193.09;;;13.97;100.00
8569;BME280;4322;51.104;-4.162;2022-10-13T08:44:11;102212.13;;;14.00;100.00
8569;BME280;4322;51.104;-4.162;2022-10-13T08:47:07;102246.88;;;14.05;100.00
8569;BME280;4322;51.104;-4.162;2022-10-13T08:49:37;102279.94;;;14.09;100.00
8569;BME280;4322;51.104;-4.162;2022-10-13T08:52:12;102300.72;;;14.14;100.00
8569;BME280;4322;51.104;-4.162;2022-10-13T08:54:43;102325.84;;;14.19;100.00
8569;BME280;4322;51.104;-4.162;2022-10-13T08:57:11;102340.63;;;14.22;100.00
8569;BME280;4322;51.104;-4.162;2022-10-13T08:59:40;102367.59;;;14.25;100.00
8569;BME280;4322;51.104;-4.162;2022-10-13T09:02:11;102380.50;;;14.32;100.00
8569;BME280;4322;51.104;-4.162;2022-10-13T09:04:42;102390.69;;;14.39;100.00
8569;BME280;4322;51.104;-4.162;2022-10-13T09:07:16;102408.84;;;14.44;100.00
8569;BME280;4322;51.104;-4.162;2022-10-13T09:09:49;102428.84;;;14.48;100.00
8569;BME280;4322;51.104;-4.162;2022-10-13T09:12:17;102452.34;;;14.51;100.00
8569;BME280;4322;51.104;-4.162;2022-10-13T09:14:58;102488.13;;;14.52;100.00
8569;BME280;4322;51.104;-4.162;2022-10-13T09:17:28;102513.56;;;14.50;100.00
8569;BME280;4322;51.104;-4.162;2022-10-13T09:19:59;102539.81;;;14.50;100.00
8569;BME280;4322;51.104;-4.162;2022-10-13T09:22:28;102567.66;;;14.54;100.00
8569;BME280;4322;51.104;-4.162;2022-10-13T09:25:18;102595.31;;;14.62;100.00
8569;BME280;4322;51.104;-4.162;2022-10-13T09:27:49;102623.09;;;14.68;100.00
8569;BME280;4322;51.104;-4.162;2022-10-13T09:30:32;102642.97;;;14.75;100.00
8569;BME280;4322;51.104;-4.162;2022-10-13T09:33:21;102668.09;;;14.82;100.00
8569;BME280;4322;51.104;-4.162;2022-10-13T09:36:07;102696.75;;;14.88;100.00
8569;BME280;4322;51.104;-4.162;2022-10-13T09:38:37;102723.69;;;14.93;100.00
8569;BME280;4322;51.104;-4.162;2022-10-13T09:41:11;102746.19;;;15.00;100.00
8569;BME280;4322;51.104;-4.162;2022-10-13T09:43:42;102774.00;;;15.06;100.00
8569;BME280;4322;51.104;-4.162;2022-10-13T09:46:18;102804.59;;;15.07;100.00
8569;BME280;4322;51.104;-4.162;2022-10-13T09:48:49;102849.34;;;15.04;100.00
8569;BME280;4322;51.104;-4.162;2022-10-13T09:51:30;102894.97;;;15.01;100.00
8569;BME280;4322;51.104;-4.162;2022-10-13T09:53:59;102940.50;;;15.00;100.00
8569;BME280;4322;51.104;-4.162;2022-10-13T09:56:32;102970.16;;;15.04;100.00
8569;BME280;4322;51.104;-4.162;2022-10-13T09:59:10;102983.16;;;15.08;100.00
8569;BME280;4322;51.104;-4.162;2022-10-13T10:01:44;102993.50;;;15.13;100.00
8569;BME280;4322;51.104;-4.162;2022-10-13T10:04:17;103009.22;;;15.14;100.00
8569;BME280;4322;51.104;-4.162;2022-10-13T10:06:47;103030.28;;;15.13;100.00
8569;BME280;4322;51.104;-4.162;2022-10-13T10:09:32;103045.38;;;15.06;100.00
8569;BME280;4322;51.104;-4.162;2022-10-13T10:12:03;103068.19;;;15.04;100.00
8569;BME280;4322;51.104;-4.162;2022-10-13T10:14:33;103084.06;;;15.01;100.00
8569;BME280;4322;51.104;-4.162;2022-10-13T10:17:12;103101.72;;;14.96;100.00
8569;BME280;4322;51.104;-4.162;2022-10-13T10:19:53;103110.69;;;14.89;100.00
8569;BME280;4322;51.104;-4.162;2022-10-13T10:22:30;103116.06;;;14.84;100.00
8569;BME280;4322;51.104;-4.162;2022-10-13T10:25:21;103118.59;;;14.87;100.00
8569;BME280;4322;51.104;-4.162;2022-10-13T10:28:07;103122.81;;;14.93;100.00
8569;BME280;4322;51.104;-4.162;2022-10-13T10:30:42;103106.19;;;14.93;100.00
8569;BME280;4322;51.104;-4.162;2022-10-13T10:33:18;103087.97;;;14.88;100.00
8569;BME280;4322;51.104;-4.162;2022-10-13T10:35:50;103073.25;;;14.82;100.00
8569;BME280;4322;51.104;-4.162;2022-10-13T10:38:25;103075.19;;;14.76;100.00
8569;BME280;4322;51.104;-4.162;2022-10-13T10:41:04;103072.78;;;14.68;100.00
8569;BME280;4322;51.104;-4.162;2022-10-13T10:43:42;103070.34;;;14.62;100.00
8569;BME280;4322;51.104;-4.162;2022-10-13T10:46:18;103077.41;;;14.60;100.00
8569;BME280;4322;51.104;-4.162;2022-10-13T10:48:52;103062.53;;;14.61;100.00
8569;BME280;4322;51.104;-4.162;2022-10-13T10:51:24;103047.56;;;14.64;100.00
8569;BME280;4322;51.104;-4.162;2022-10-13T10:53:59;103022.03;;;14.69;100.00
8569;BME280;4322;51.104;-4.162;2022-10-13T10:56:35;102987.72;;;14.75;100.00
8569;BME280;4322;51.104;-4.162;2022-10-13T10:59:14;102951.69;;;14.79;100.00
8569;BME280;4322;51.104;-4.162;2022-10-13T11:01:49;102926.38;;;14.78;100.00
8569;BME280;4322;51.104;-4.162;2022-10-13T11:04:32;102914.31;;;14.72;100.00
8569;BME280;4322;51.104;-4.162;2022-10-13T11:07:02;102908.19;;;14.72;100.00
8569;BME280;4322;51.104;-4.162;2022-10-13T11:10:00;102906.34;;;14.75;100.00
8569;BME280;4322;51.104;-4.162;2022-10-13T11:15:40;102860.22;;;14.93;100.00
8569;BME280;4322;51.104;-4.162;2022-10-13T11:21:15;102813.03;;;15.16;100.00
8569;BME280;4322;51.104;-4.162;2022-10-13T11:23:44;102805.50;;;15.30;100.00
8569;BME280;4322;51.104;-4.162;2022-10-13T11:26:40;102795.03;;;15.54;100.00
8569;BME280;4322;51.104;-4.162;2022-10-13T11:29:17;102801.13;;;15.77;100.00
8569;BME280;4322;51.104;-4.162;2022-10-13T11:31:53;102814.75;;;16.10;100.00
8569;BME280;4322;51.104;-4.162;2022-10-13T11:34:26;102824.72;;;16.45;100.00
8569;BME280;4322;51.104;-4.162;2022-10-13T11:36:58;102847.00;;;16.80;100.00
8569;BME280;4322;51.104;-4.162;2022-10-13T11:40:04;102911.66;;;17.09;100.00
8569;BME280;4322;51.104;-4.162;2022-10-13T11:43:02;103013.84;;;17.44;100.00
8569;BME280;4322;51.104;-4.162;2022-10-13T11:45:46;103123.13;;;17.59;100.00
8569;BME280;4322;51.104;-4.162;2022-10-13T11:48:53;103210.34;;;17.98;100.00
8569;BME280;4322;51.104;-4.162;2022-10-13T11:51:30;103247.06;;;18.24;100.00
8569;BME280;4322;51.104;-4.162;2022-10-13T11:54:11;103315.28;;;18.34;100.00
8569;BME280;4322;51.104;-4.162;2022-10-13T11:56:46;103330.00;;;18.40;100.00
8569;BME280;4322;51.104;-4.162;2022-10-13T11:59:25;103344.88;;;18.21;100.00
8569;BME280;4322;51.104;-4.162;2022-10-13T12:01:56;103335.06;;;18.03;100.00
8569;BME280;4322;51.104;-4.162;2022-10-13T12:04:25;103323.38;;;17.87;100.00
8569;BME280;4322;51.104;-4.162;2022-10-13T12:06:58;103313.53;;;17.68;100.00
8569;BME280;4322;51.104;-4.162;2022-10-13T12:09:29;103312.59;;;17.46;100.00
8569;BME280;4322;51.104;-4.162;2022-10-13T12:12:01;103301.00;;;17.27;100.00
8569;BME280;4322;51.104;-4.162;2022-10-13T12:14:31;103286.69;;;17.09;100.00
8569;BME280;4322;51.104;-4.162;2022-10-13T12:17:02;103283.97;;;16.88;100.00
8569;BME280;4322;51.104;-4.162;2022-10-13T12:19:30;103279.84;;;16.81;100.00
8569;BME280;4322;51.104;-4.162;2022-10-13T12:22:00;103288.81;;;16.75;100.00
8569;BME280;4322;51.104;-4.162;2022-10-13T12:24:29;103305.91;;;16.88;100.00
8569;BME280;4322;51.104;-4.162;2022-10-13T12:26:57;103333.06;;;17.15;100.00
8569;BME280;4322;51.104;-4.162;2022-10-13T12:29:26;103336.03;;;17.55;100.00
8569;BME280;4322;51.104;-4.162;2022-10-13T12:32:02;103337.25;;;17.92;100.00
8569;BME280;4322;51.104;-4.162;2022-10-13T12:34:32;103347.72;;;18.38;100.00
8569;BME280;4322;51.104;-4.162;2022-10-13T12:37:04;103336.56;;;18.73;100.00
8569;BME280;4322;51.104;-4.162;2022-10-13T12:39:38;103299.25;;;19.01;100.00
8569;BME280;4322;51.104;-4.162;2022-10-13T12:42:08;103279.53;;;19.08;100.00
8569;BME280;4322;51.104;-4.162;2022-10-13T12:44:43;103240.09;;;19.03;100.00
8569;BME280;4322;51.104;-4.162;2022-10-13T12:47:35;103205.94;;;18.99;100.00
8569;BME280;4322;51.104;-4.162;2022-10-13T12:50:31;103191.41;;;18.89;100.00
8569;BME280;4322;51.104;-4.162;2022-10-13T12:53:10;103189.25;;;18.78;100.00
8569;BME280;4322;51.104;-4.162;2022-10-13T12:55:53;103192.25;;;18.71;100.00
8569;BME280;4322;51.104;-4.162;2022-10-13T12:58:26;103205.81;;;18.63;100.00
8569;BME280;4322;51.104;-4.162;2022-10-13T13:00:57;103204.50;;;18.53;100.00
8569;BME280;4322;51.104;-4.162;2022-10-13T13:03:28;103201.41;;;18.42;100.00
8569;BME280;4322;51.104;-4.162;2022-10-13T13:09:22;103224.56;;;18.57;100.00
8569;BME280;4322;51.104;-4.162;2022-10-13T13:12:17;103234.47;;;18.72;100.00
8569;BME280;4322;51.104;-4.162;2022-10-13T13:14:48;103232.19;;;18.83;100.00
8569;BME280;4322;51.104;-4.162;2022-10-13T13:17:27;103215.56;;;18.81;100.00
8569;BME280;4322;51.104;-4.162;2022-10-13T13:20:20;103123.53;;;18.52;100.00
8569;BME280;4322;51.104;-4.162;2022-10-13T13:22:48;103085.88;;;18.27;100.00
8569;BME280;4322;51.104;-4.162;2022-10-13T13:25:17;103074.81;;;18.19;100.00
8569;BME280;4322;51.104;-4.162;2022-10-13T13:27:47;103066.84;;;18.20;100.00